createdAt,value
2023-01-30T00:00:06.772Z,69.76986754243312
2023-01-30T00:05:03.042Z,69.9355337083351
2023-01-30T00:09:59.217Z,70.3064871031863
2023-01-30T00:14:55.526Z,69.3792428834123
2023-01-30T00:19:51.805Z,69.88286259370626
2023-01-30T00:24:47.147Z,70.38181810884883
2023-01-30T00:29:49.300Z,69.81817919586925
2023-01-30T00:34:43.518Z,68.73944621674381
2023-01-30T00:39:38.815Z,67.64876585986671
2023-01-30T00:44:35.056Z,67.85525656556779
2023-01-30T00:49:31.945Z,67.05979730727422
2023-01-30T00:54:28.565Z,67.3825978955035
2023-01-30T00:59:24.826Z,65.57332653762724
2023-01-30T01:04:21.121Z,64.98779104662916
2023-01-30T01:09:17.364Z,65.56707871600197
2023-01-30T01:14:13.620Z,65.75942535999982
2023-01-30T01:19:09.870Z,65.66039950576094
2023-01-30T01:24:06.174Z,66.12393164612384
2023-01-30T01:29:02.389Z,66.60676254981337
2023-01-30T01:33:58.654Z,66.19898199166734
2023-01-30T01:38:55.881Z,65.75544677709023
2023-01-30T01:44:00.146Z,64.5759928777898
2023-01-30T01:49:00.406Z,66.54615869246231
2023-01-30T01:54:02.627Z,66.08590732119004
2023-01-30T01:59:02.895Z,64.50576048851148
2023-01-30T02:04:03.149Z,66.04640690728746
2023-01-30T02:09:03.375Z,66.5352538898772
2023-01-30T02:14:00.626Z,66.99224374609094
2023-01-30T02:18:56.915Z,66.19045596525945
2023-01-30T02:24:11.090Z,65.82596310924382
2023-01-30T02:29:26.339Z,66.14853245754564
2023-01-30T02:34:35.588Z,66.71100406491306
2023-01-30T02:39:39.861Z,66.25502664739477
2023-01-30T02:44:42.025Z,68.38163438937406
2023-01-30T02:49:41.322Z,67.78170344414401
2023-01-30T02:54:37.535Z,67.75399165792513
2023-01-30T02:59:37.828Z,66.13270606117811
2023-01-30T03:04:50.019Z,66.8394806643393
2023-01-30T03:09:55.287Z,66.43448053610864
2023-01-30T03:14:59.515Z,66.75035328610839
2023-01-30T03:19:55.780Z,66.59762003028439
2023-01-30T03:24:53.019Z,66.86823240437487
2023-01-30T03:29:49.249Z,66.98596548849865
2023-01-30T03:34:45.538Z,67.4589900468479
2023-01-30T03:39:41.826Z,68.4962456887804
2023-01-30T03:44:38.087Z,69.9703162345839
2023-01-30T03:49:34.328Z,68.72279246053714
2023-01-30T03:54:30.589Z,68.6257290955775
2023-01-30T03:59:26.860Z,69.20494208377545
2023-01-30T04:04:23.069Z,69.4133199472468
2023-01-30T04:09:19.346Z,70.70264074270261
2023-01-30T04:14:15.624Z,71.04993449956626
2023-01-30T04:19:11.848Z,70.15623851894647
2023-01-30T04:24:08.121Z,70.79626049301599
2023-01-30T04:29:04.398Z,70.75737795085239
2023-01-30T04:34:00.657Z,68.08588184556368
2023-01-30T04:38:56.913Z,68.34985526548091
2023-01-30T04:48:58.431Z,68.04180813289999
2023-01-30T04:53:55.679Z,68.47185375764624
2023-01-30T04:58:51.923Z,68.22745123099655
2023-01-30T05:03:49.204Z,69.98512871527947
2023-01-30T05:08:47.446Z,69.84188216872376
2023-01-30T05:13:43.675Z,70.4165348503835
2023-01-30T05:18:39.963Z,70.33162270873211
2023-01-30T05:23:36.192Z,71.26662170426393
2023-01-30T05:28:32.465Z,73.08671741603338
2023-01-30T05:33:28.732Z,71.18456898103258
2023-01-30T05:38:24.000Z,71.01515923442871
2023-01-30T05:43:20.239Z,72.01995807324028
2023-01-30T05:48:16.531Z,72.1549059265314
2023-01-30T05:53:12.737Z,72.17776632547977
2023-01-30T05:58:09.021Z,71.85730512652731
2023-01-30T06:03:05.299Z,72.51025259561477
2023-01-30T06:08:01.554Z,69.99222702482517
2023-01-30T06:12:57.832Z,71.78107909209345
2023-01-30T06:17:54.050Z,70.59973271836917
2023-01-30T06:22:50.334Z,71.84181887909247
2023-01-30T06:27:46.600Z,71.76783092362356
2023-01-30T06:32:42.919Z,70.23968300504595
2023-01-30T06:37:39.104Z,71.95174575356396
2023-01-30T06:42:35.376Z,70.93735498068706
2023-01-30T06:47:31.628Z,71.31823198177887
2023-01-30T06:52:27.872Z,70.33838698141551
2023-01-30T06:57:24.164Z,71.62855398021625
2023-01-30T07:02:20.381Z,70.60699588355632
2023-01-30T07:07:16.679Z,69.1904053437938
2023-01-30T07:12:12.979Z,69.86671915506089
2023-01-30T07:17:09.182Z,69.46347981225878
2023-01-30T07:22:05.458Z,68.64820567979021
2023-01-30T07:27:01.678Z,68.2452518369528
2023-01-30T07:31:58.043Z,68.52340065962166
2023-01-30T07:36:54.217Z,68.06378958886648
2023-01-30T07:41:50.483Z,85.77291218263949
2023-01-30T07:46:46.799Z,65.27929467346847
2023-01-30T07:51:42.995Z,66.21705160291977
2023-01-30T07:56:39.264Z,67.06350806587416
2023-01-30T08:01:35.490Z,67.46497977421912
2023-01-30T08:06:31.758Z,67.35527962698396
2023-01-30T08:11:28.022Z,69.19821406710722
2023-01-30T08:16:24.328Z,68.2391632723055
2023-01-30T08:21:20.556Z,67.73126735087793
2023-01-30T08:26:15.818Z,68.72291661503866
2023-01-30T08:31:14.229Z,68.14876658904316
2023-01-30T08:36:11.290Z,66.45750372884456
2023-01-30T08:41:07.627Z,65.23097776636264
2023-01-30T08:46:03.892Z,65.33567747086197
2023-01-30T08:51:00.109Z,63.659297037496366
2023-01-30T08:55:56.364Z,64.0080263900267
2023-01-30T09:00:51.690Z,63.13427643550429
2023-01-30T09:05:52.862Z,63.687057251042695
2023-01-30T09:10:49.100Z,61.489543283652615
2023-01-30T09:15:45.384Z,61.1964683257408
2023-01-30T09:20:42.656Z,61.10274409446928
2023-01-30T09:25:38.937Z,62.18891677105002
2023-01-30T09:30:36.250Z,60.98380819772726
2023-01-30T09:35:32.409Z,61.799945801416975
2023-01-30T09:40:30.665Z,60.25587524906685
2023-01-30T09:45:42.865Z,60.530126536915425
2023-01-30T09:50:57.084Z,57.721117349967365
2023-01-30T09:55:57.379Z,58.5376668513435
2023-01-30T10:01:00.591Z,58.00003512426659
2023-01-30T10:06:04.812Z,57.91549012840262
2023-01-30T10:11:15.056Z,58.784998092203445
2023-01-30T10:16:21.374Z,57.44507356903502
2023-01-30T10:21:26.534Z,56.40920796088264
2023-01-30T10:26:26.903Z,55.149956483566854
2023-01-30T10:31:27.046Z,53.29630624801162
2023-01-30T10:36:32.255Z,54.59616169440803
2023-01-30T10:41:34.487Z,52.38614998603205
2023-01-30T10:46:40.806Z,53.59702690509624
2023-01-30T10:51:43.011Z,52.09025428335975
2023-01-30T10:56:48.261Z,50.96388594139119
2023-01-30T11:01:53.561Z,51.350262760411866
2023-01-30T11:06:52.726Z,51.98789713899673
2023-01-30T11:11:54.935Z,48.21446942568693
2023-01-30T11:16:53.211Z,52.73640341910258
2023-01-30T11:21:52.471Z,51.487977285665714
2023-01-30T11:26:51.933Z,52.10201200343003
2023-01-30T11:31:50.087Z,52.16550963787877
2023-01-30T11:36:51.236Z,52.76463050189129
2023-01-30T11:41:55.445Z,52.29706372050957
2023-01-30T11:46:52.740Z,52.847068086439855
2023-01-30T11:51:51.993Z,52.89908497951923
2023-01-30T11:56:53.208Z,54.376512399932714
2023-01-30T12:01:49.514Z,53.17172214763293
2023-01-30T12:06:56.723Z,54.03274005894509
2023-01-30T12:11:57.951Z,53.23500278975728
2023-01-30T12:17:00.183Z,54.386294139023256
2023-01-30T12:22:08.423Z,54.43322653794334
2023-01-30T12:27:13.693Z,54.87800406682569
2023-01-30T12:32:15.928Z,55.07453870953921
2023-01-30T12:37:26.180Z,50.068172453129584
2023-01-30T12:42:39.367Z,50.862390996507685
2023-01-30T12:47:52.585Z,50.490952899819824
2023-01-30T12:52:59.779Z,47.86355310810691
2023-01-30T12:58:01.067Z,49.96970911648627
2023-01-30T13:03:14.319Z,51.95193248160141
2023-01-30T13:08:21.495Z,53.43424772601214
2023-01-30T13:13:24.730Z,53.90211842799857
2023-01-30T13:18:31.958Z,55.12904204641827
2023-01-30T13:23:38.193Z,56.0117320096695
2023-01-30T13:28:38.475Z,56.64152569444858
2023-01-30T13:33:43.068Z,57.516205867755474
2023-01-30T13:38:42.979Z,57.11576385883382
2023-01-30T13:43:48.202Z,56.938065342157635
2023-01-30T13:48:57.032Z,56.65943557947925
2023-01-30T13:59:14.884Z,58.59061644654341
2023-01-30T14:04:16.137Z,58.96729310379387
2023-01-30T14:09:19.405Z,59.30994500700211
2023-01-30T14:14:26.565Z,59.46149521481489
2023-01-30T14:19:33.860Z,56.66291935163877
2023-01-30T14:24:32.109Z,58.00545633171072
2023-01-30T14:29:38.313Z,58.35726178338398
2023-01-30T14:34:40.564Z,59.099216402947775
2023-01-30T14:39:51.765Z,59.838391858673674
2023-01-30T14:45:01.010Z,58.217134330033815
2023-01-30T14:50:02.317Z,59.860700963813734
2023-01-30T14:55:01.573Z,60.95821560964914
2023-01-30T15:00:17.666Z,63.239005854713895
2023-01-30T15:05:09.005Z,63.34029316662257
2023-01-30T15:10:06.318Z,64.31486774888411
2023-01-30T15:15:11.484Z,64.39102779090202
2023-01-30T15:20:23.749Z,64.24710065394507
2023-01-30T15:25:37.917Z,65.24998368216207
2023-01-30T15:30:54.166Z,64.5126107336232
2023-01-30T15:35:53.379Z,65.91018643036442
2023-01-30T15:40:50.618Z,63.86148448895539
2023-01-30T15:45:59.925Z,62.95552012301054
2023-01-30T15:50:57.106Z,62.87000868905671
2023-01-30T15:55:56.368Z,62.4515931802206
2023-01-30T16:00:58.603Z,61.59943868741683
2023-01-30T16:05:56.856Z,62.5897745484592
2023-01-30T16:10:53.132Z,61.81734108169731
2023-01-30T16:15:55.386Z,62.08847904009096
2023-01-30T16:21:01.650Z,60.643652466457304
2023-01-30T16:25:55.862Z,62.50668736860941
2023-01-30T16:30:57.208Z,61.64985721093615
2023-01-30T16:35:59.356Z,61.084182979236296
2023-01-30T16:40:56.610Z,62.32360157261395
2023-01-30T16:51:10.108Z,63.09393399148837
2023-01-30T16:56:08.319Z,63.71916455903865
2023-01-30T17:01:07.685Z,63.23548309972897
2023-01-30T17:06:09.860Z,62.73905749365352
2023-01-30T17:11:20.102Z,63.599873055831154
2023-01-30T17:16:17.469Z,63.45863159578807
2023-01-30T17:21:14.591Z,64.29915714126248
2023-01-30T17:26:14.853Z,62.41164932135747
2023-01-30T17:31:12.194Z,63.19710088401402
2023-01-30T17:36:11.343Z,61.24946567503824
2023-01-30T17:41:13.589Z,64.24069940983563
2023-01-30T17:46:11.868Z,61.61609176062511
2023-01-30T17:51:08.092Z,63.89463430686184
2023-01-30T17:56:04.383Z,61.31739095005945
2023-01-30T18:01:00.613Z,64.47489008030149
2023-01-30T18:05:56.865Z,63.836749301119745
2023-01-30T18:10:53.135Z,67.02068963133705
2023-01-30T18:15:54.344Z,64.10476442227751
2023-01-30T18:20:50.598Z,64.95733213182318
2023-01-30T18:25:46.872Z,65.07183196116051
2023-01-30T18:30:44.263Z,63.78779081669447
2023-01-30T18:35:40.433Z,64.79523731451499
2023-01-30T18:40:37.683Z,62.776518235064664
2023-01-30T18:45:33.906Z,64.62695086056378
2023-01-30T18:50:30.189Z,67.8417897007918
2023-01-30T18:55:26.434Z,68.70627657381048
2023-01-30T19:00:24.709Z,68.88490281628354
2023-01-30T19:05:21.001Z,66.94739330823285
2023-01-30T19:10:17.840Z,66.71393346977207
2023-01-30T19:15:14.481Z,67.20968448623744
2023-01-30T19:20:10.736Z,68.01780793804404
2023-01-30T19:25:07.983Z,69.54871106461809
2023-01-30T19:30:04.263Z,66.00446538133038
2023-01-30T19:35:00.542Z,63.72730603097796
2023-01-30T19:39:56.767Z,64.69964468843258
2023-01-30T19:44:53.073Z,63.59523577743562
2023-01-30T19:49:48.303Z,64.5078081145627
2023-01-30T19:54:44.589Z,64.76337499378369
2023-01-30T19:59:42.835Z,65.37675749394742
2023-01-30T20:04:39.068Z,65.62454531853429
2023-01-30T20:09:36.322Z,65.11951222269128
2023-01-30T20:14:33.371Z,63.22569829726891
2023-01-30T20:19:30.824Z,64.28220023430733
2023-01-30T20:24:27.123Z,64.80445314098122
2023-01-30T20:29:23.391Z,65.35837706598858
2023-01-30T20:34:19.621Z,64.7238559591915
2023-01-30T20:39:15.844Z,67.42486927969661
2023-01-30T20:44:14.121Z,66.15043473796797
2023-01-30T20:49:12.348Z,67.3199550530338
2023-01-30T20:54:09.617Z,66.53607760381539
2023-01-30T20:59:06.870Z,66.71504123486102
2023-01-30T21:04:05.176Z,68.5648267884451
2023-01-30T21:09:02.518Z,69.67264280637119
2023-01-30T21:13:58.676Z,65.00724983609396
2023-01-30T21:19:00.138Z,68.2460721743133
2023-01-30T21:23:58.168Z,66.89406419731934
2023-01-30T21:28:54.426Z,69.5758037531163
2023-01-30T21:33:50.764Z,66.29696291998059
2023-01-30T21:38:46.928Z,65.63145778328601
2023-01-30T21:43:47.186Z,66.8374779451118
2023-01-30T21:48:43.460Z,66.82996861141119
2023-01-30T21:53:40.053Z,68.05034889974415
2023-01-30T21:58:36.504Z,66.44704279736337
2023-01-30T22:03:32.279Z,66.21950884220648
2023-01-30T22:08:28.487Z,67.72733847424122
2023-01-30T22:13:24.723Z,67.9551584795935
2023-01-30T22:18:21.021Z,69.19939766884161
2023-01-30T22:23:17.239Z,68.88796389521718
2023-01-30T22:28:13.531Z,68.68694550911407
2023-01-30T22:33:09.794Z,66.94715420943245
2023-01-30T22:38:06.070Z,67.04630083417842
2023-01-30T22:43:02.327Z,68.92886969022017
2023-01-30T22:47:58.584Z,70.47031849868397
2023-01-30T22:52:54.817Z,71.74594224661169
2023-01-30T22:57:51.050Z,72.92438355702133
2023-01-30T23:02:47.695Z,73.86133433989866
2023-01-30T23:07:43.598Z,74.30273027347734
2023-01-30T23:12:40.236Z,75.33847473238842
2023-01-30T23:17:36.836Z,76.10998272017822
2023-01-30T23:22:33.364Z,76.7190703679587
2023-01-30T23:27:29.666Z,77.13277585965433
2023-01-30T23:32:25.926Z,77.25546667803576
2023-01-30T23:37:22.128Z,77.05233670898764
2023-01-30T23:42:18.441Z,76.71956672810747
2023-01-30T23:47:14.669Z,76.54293044924346
2023-01-30T23:52:11.970Z,76.32568085527862
2023-01-30T23:57:09.155Z,76.43674147794067
